createdAt,value
2023-11-23T04:56:41.824Z,-1.06
2023-11-23T04:59:44.818Z,-0.87
2023-11-23T05:02:47.875Z,-0.78
2023-11-23T05:05:50.994Z,-0.61
2023-11-23T05:08:53.859Z,-0.52
2023-11-23T05:11:59.399Z,-0.45
2023-11-23T05:15:02.880Z,-0.38
2023-11-23T05:18:06.419Z,-0.12
2023-11-23T05:21:09.495Z,-0.13
2023-11-23T05:24:12.634Z,-0.03
2023-11-23T05:27:15.393Z,-0.04
2023-11-23T05:30:19.901Z,-0.06
2023-11-23T05:33:26.088Z,-0.01
2023-11-23T05:36:29.554Z,0.01
2023-11-23T05:39:32.309Z,0.03
2023-11-23T05:42:35.828Z,-0.02
2023-11-23T05:45:38.659Z,-0.03
2023-11-23T05:48:41.945Z,-0.11
2023-11-23T05:51:45.458Z,-0.16
2023-11-23T05:54:52.158Z,-0.21
2023-11-23T05:57:55.015Z,-0.23
2023-11-23T06:01:06.997Z,-0.29
2023-11-23T06:04:13.944Z,-0.27
2023-11-23T06:07:17.163Z,-0.11
2023-11-23T06:10:20.240Z,-0.22
2023-11-23T06:13:23.123Z,-0.19
2023-11-23T06:16:26.512Z,-0.25
2023-11-23T06:19:29.486Z,-0.28
2023-11-23T06:22:33.234Z,-0.17
2023-11-23T06:25:36.179Z,-0.10
2023-11-23T06:28:39.527Z,-0.07
2023-11-23T06:31:43.119Z,0.01
2023-11-23T06:34:46.365Z,0.05
2023-11-23T06:37:49.309Z,-0.01
2023-11-23T06:40:52.261Z,0.03
2023-11-23T06:43:54.983Z,0.13
2023-11-23T06:46:57.920Z,0.15
2023-11-23T06:50:02.048Z,0.18
2023-11-23T06:53:05.356Z,0.26
2023-11-23T06:56:11.185Z,0.34
2023-11-23T06:59:14.431Z,0.42
2023-11-23T07:02:17.452Z,0.62
2023-11-23T07:05:20.863Z,0.96
2023-11-23T07:08:23.713Z,1.22
2023-11-23T07:11:26.649Z,1.43
2023-11-23T07:14:29.729Z,1.63
2023-11-23T07:17:32.935Z,1.84
2023-11-23T07:20:35.898Z,1.84
2023-11-23T07:23:39.348Z,1.81
2023-11-23T07:26:42.208Z,1.66
2023-11-23T07:29:46.390Z,1.54
2023-11-23T07:32:49.028Z,1.55
2023-11-23T07:35:52.400Z,1.63
2023-11-23T07:38:55.346Z,1.68
2023-11-23T07:41:58.439Z,1.73
2023-11-23T07:45:01.397Z,1.92
2023-11-23T07:48:10.500Z,1.86
2023-11-23T07:51:14.525Z,1.85
2023-11-23T07:54:17.769Z,1.87
2023-11-23T07:57:20.606Z,1.89
2023-11-23T08:00:23.694Z,1.90
2023-11-23T08:03:26.886Z,1.78
2023-11-23T08:06:29.755Z,1.75
2023-11-23T08:09:33.178Z,1.82
2023-11-23T08:12:36.125Z,1.86
2023-11-23T08:15:39.244Z,1.84
2023-11-23T08:18:49.601Z,1.86
2023-11-23T08:21:53.658Z,1.99
2023-11-23T08:24:56.610Z,2.32
2023-11-23T08:27:59.892Z,2.54
2023-11-23T08:31:02.575Z,2.63
2023-11-23T08:34:42.568Z,2.67
2023-11-23T08:37:47.539Z,2.83
2023-11-23T08:40:50.725Z,3.29
2023-11-23T08:43:53.419Z,3.54
2023-11-23T08:46:58.531Z,3.83
2023-11-23T08:50:03.904Z,3.92
2023-11-23T08:53:07.012Z,4.06
2023-11-23T08:56:09.777Z,4.12
2023-11-23T08:59:13.876Z,4.21
2023-11-23T09:02:20.810Z,4.16
2023-11-23T09:05:24.788Z,4.45
2023-11-23T09:08:27.828Z,4.76
2023-11-23T09:11:31.830Z,4.83
2023-11-23T09:14:46.156Z,5.27
2023-11-23T09:17:52.473Z,5.17
2023-11-23T09:20:58.390Z,5.12
2023-11-23T09:24:04.161Z,5.13
2023-11-23T09:27:11.334Z,5.54
2023-11-23T09:30:14.586Z,5.41
2023-11-23T09:33:20.479Z,5.55
2023-11-23T09:36:24.854Z,5.36
2023-11-23T09:39:28.935Z,5.52
2023-11-23T09:42:37.066Z,5.29
2023-11-23T09:45:40.216Z,5.27
2023-11-23T09:48:45.451Z,5.14
2023-11-23T09:51:50.764Z,5.14
2023-11-23T09:54:57.921Z,4.94
2023-11-23T09:58:00.541Z,4.80
2023-11-23T10:01:04.527Z,4.68
2023-11-23T10:04:07.916Z,4.62
2023-11-23T10:07:13.198Z,4.60
2023-11-23T10:10:16.833Z,4.63
2023-11-23T10:13:20.591Z,4.62
2023-11-23T10:16:23.504Z,4.55
2023-11-23T10:19:26.570Z,4.58
2023-11-23T10:22:31.999Z,4.52
2023-11-23T10:25:35.960Z,4.44
2023-11-23T10:28:39.801Z,4.32
2023-11-23T10:31:42.727Z,4.15
2023-11-23T10:34:46.504Z,4.30
2023-11-23T10:37:55.100Z,4.36
2023-11-23T10:41:00.039Z,4.85
2023-11-23T10:44:04.562Z,5.28
2023-11-23T10:47:08.761Z,5.37
2023-11-23T10:50:13.029Z,5.57
2023-11-23T10:53:17.276Z,5.60
2023-11-23T10:56:23.992Z,5.41
2023-11-23T10:59:28.957Z,5.55
2023-11-23T11:02:32.877Z,5.72
2023-11-23T11:05:38.697Z,5.65
2023-11-23T11:08:49.461Z,5.95
2023-11-23T11:11:57.383Z,6.11
2023-11-23T11:15:04.479Z,6.31
2023-11-23T11:18:11.404Z,6.63
2023-11-23T11:21:17.492Z,6.98
2023-11-23T11:24:22.893Z,7.43
2023-11-23T11:27:29.879Z,7.75
2023-11-23T11:30:38.751Z,8.07
2023-11-23T11:33:42.357Z,8.24
2023-11-23T11:36:47.506Z,8.53
2023-11-23T11:39:52.353Z,9.05
2023-11-23T11:42:57.204Z,9.41
2023-11-23T11:46:00.027Z,9.54
2023-11-23T11:49:03.541Z,9.81
2023-11-23T11:52:13.441Z,10.50
2023-11-23T11:55:16.798Z,10.84
2023-11-23T11:58:20.941Z,11.18
2023-11-23T12:01:24.001Z,12.18
2023-11-23T12:04:27.272Z,11.84
2023-11-23T12:07:30.152Z,13.22
2023-11-23T12:10:41.325Z,14.12
2023-11-23T12:13:46.486Z,13.96
2023-11-23T12:16:50.735Z,13.47
2023-11-23T12:19:55.480Z,14.02
2023-11-23T12:23:04.657Z,14.01
2023-11-23T12:26:07.361Z,13.73
2023-11-23T12:29:10.352Z,14.26
2023-11-23T12:32:13.284Z,14.58
2023-11-23T12:35:16.829Z,13.68
2023-11-23T12:38:19.581Z,14.62
2023-11-23T12:41:23.174Z,16.04
2023-11-23T12:44:26.756Z,15.86
2023-11-23T12:47:31.522Z,16.08
2023-11-23T12:50:34.551Z,15.88
2023-11-23T12:53:37.624Z,14.59
2023-11-23T12:56:40.662Z,13.05
2023-11-23T12:59:43.863Z,11.51
2023-11-23T13:02:46.747Z,10.46
2023-11-23T13:05:54.218Z,9.59
2023-11-23T13:08:57.401Z,9.34
2023-11-23T13:12:04.868Z,9.26
2023-11-23T13:15:13.522Z,9.04
2023-11-23T13:18:17.013Z,9.07
2023-11-23T13:21:21.049Z,9.00
2023-11-23T13:24:25.816Z,9.03
2023-11-23T13:27:29.195Z,8.57
2023-11-23T13:30:32.862Z,8.28
2023-11-23T13:33:36.104Z,8.29
2023-11-23T13:36:39.668Z,8.33
2023-11-23T13:39:42.996Z,8.23
2023-11-23T13:42:46.404Z,8.17
2023-11-23T13:45:51.240Z,8.20
2023-11-23T13:48:54.681Z,8.08
2023-11-23T13:51:58.378Z,7.73
2023-11-23T13:55:01.569Z,7.52
2023-11-23T13:58:06.929Z,7.38
2023-11-23T14:01:13.859Z,7.17
2023-11-23T14:04:17.469Z,6.99
2023-11-23T14:07:20.616Z,6.85
2023-11-23T14:10:24.080Z,6.74
2023-11-23T14:13:27.455Z,6.67
2023-11-23T14:16:36.039Z,6.58
2023-11-23T14:19:39.886Z,6.51
2023-11-23T14:22:47.913Z,6.33
2023-11-23T14:25:51.855Z,6.13
2023-11-23T14:28:55.720Z,6.04
2023-11-23T14:31:58.819Z,5.98
2023-11-23T14:35:02.692Z,5.86
2023-11-23T14:38:06.910Z,5.78
2023-11-23T14:41:12.809Z,5.69
2023-11-23T14:44:16.318Z,5.72
2023-11-23T14:47:27.709Z,5.62
2023-11-23T14:50:33.075Z,5.73
2023-11-23T14:53:36.936Z,5.67
2023-11-23T14:56:43.638Z,5.51
2023-11-23T14:59:50.358Z,5.49
2023-11-23T15:02:53.993Z,5.45
2023-11-23T15:05:57.698Z,5.40
2023-11-23T15:09:01.118Z,5.33
2023-11-23T15:12:04.970Z,5.29
2023-11-23T15:15:08.858Z,5.17
2023-11-23T15:18:12.953Z,5.08
2023-11-23T15:21:17.251Z,5.12
2023-11-23T15:24:22.415Z,5.09
2023-11-23T15:27:30.369Z,4.92
2023-11-23T15:30:34.462Z,4.89
2023-11-23T15:33:37.721Z,4.76
2023-11-23T15:36:41.396Z,4.86
2023-11-23T15:39:45.421Z,4.83
2023-11-23T15:42:49.858Z,4.83
2023-11-23T15:45:53.445Z,4.71
2023-11-23T15:48:57.378Z,4.59
2023-11-23T15:52:01.221Z,4.60
2023-11-23T15:55:09.970Z,4.54
2023-11-23T15:58:13.588Z,4.60
2023-11-23T16:01:25.002Z,4.53
2023-11-23T16:04:28.834Z,4.53
2023-11-23T16:07:33.278Z,4.58
2023-11-23T16:10:37.146Z,4.53
2023-11-23T16:13:43.825Z,4.48
2023-11-23T16:16:48.331Z,4.46
2023-11-23T16:19:51.871Z,4.43
2023-11-23T16:22:56.382Z,4.32
2023-11-23T16:25:59.890Z,4.16
2023-11-23T16:29:06.007Z,4.02
2023-11-23T16:32:10.122Z,3.97
2023-11-23T16:35:13.940Z,3.96
2023-11-23T16:38:17.310Z,3.89
2023-11-23T16:41:21.953Z,3.80
2023-11-23T16:44:25.617Z,3.80
2023-11-23T16:47:29.783Z,3.66
2023-11-23T16:50:33.487Z,3.60
2023-11-23T16:53:39.128Z,3.79
2023-11-23T16:56:43.001Z,3.69
2023-11-23T16:59:48.591Z,3.55
